sensor_id;sensor_type;location;lat;lon;timestamp;P1;durP1;ratioP1;P2;durP2;ratioP2
40162;SDS011;25881;47.462;19.304;2023-02-28T00:00:00;18.93;;;11.33;;
40162;SDS011;25881;47.462;19.304;2023-02-28T00:02:25;19.83;;;11.20;;
40162;SDS011;25881;47.462;19.304;2023-02-28T00:04:50;19.03;;;11.40;;
40162;SDS011;25881;47.462;19.304;2023-02-28T00:07:26;21.88;;;12.07;;
40162;SDS011;25881;47.462;19.304;2023-02-28T00:09:51;20.42;;;11.40;;
40162;SDS011;25881;47.462;19.304;2023-02-28T00:12:16;16.73;;;10.87;;
40162;SDS011;25881;47.462;19.304;2023-02-28T00:14:41;20.57;;;11.80;;
40162;SDS011;25881;47.462;19.304;2023-02-28T00:17:07;21.60;;;11.30;;
40162;SDS011;25881;47.462;19.304;2023-02-28T00:19:32;18.03;;;10.80;;
40162;SDS011;25881;47.462;19.304;2023-02-28T00:21:57;18.03;;;10.77;;
40162;SDS011;25881;47.462;19.304;2023-02-28T00:24:22;19.47;;;11.63;;
40162;SDS011;25881;47.462;19.304;2023-02-28T00:26:48;19.17;;;10.47;;
40162;SDS011;25881;47.462;19.304;2023-02-28T00:29:13;19.33;;;11.03;;
40162;SDS011;25881;47.462;19.304;2023-02-28T00:31:38;15.57;;;9.57;;
40162;SDS011;25881;47.462;19.304;2023-02-28T00:34:03;17.37;;;9.80;;
40162;SDS011;25881;47.462;19.304;2023-02-28T00:36:28;15.90;;;8.38;;
40162;SDS011;25881;47.462;19.304;2023-02-28T00:38:54;18.60;;;10.07;;
40162;SDS011;25881;47.462;19.304;2023-02-28T00:41:19;15.07;;;9.07;;
40162;SDS011;25881;47.462;19.304;2023-02-28T00:43:44;13.23;;;8.88;;
40162;SDS011;25881;47.462;19.304;2023-02-28T00:46:10;16.17;;;8.85;;
40162;SDS011;25881;47.462;19.304;2023-02-28T00:48:36;20.13;;;9.45;;
40162;SDS011;25881;47.462;19.304;2023-02-28T00:51:01;17.27;;;8.88;;
40162;SDS011;25881;47.462;19.304;2023-02-28T00:53:27;17.33;;;8.77;;
40162;SDS011;25881;47.462;19.304;2023-02-28T00:55:52;15.82;;;8.90;;
40162;SDS011;25881;47.462;19.304;2023-02-28T00:58:17;17.47;;;8.80;;
40162;SDS011;25881;47.462;19.304;2023-02-28T01:00:43;15.43;;;9.05;;
40162;SDS011;25881;47.462;19.304;2023-02-28T01:03:08;16.55;;;8.98;;
40162;SDS011;25881;47.462;19.304;2023-02-28T01:05:33;16.75;;;9.52;;
40162;SDS011;25881;47.462;19.304;2023-02-28T01:07:59;17.07;;;9.03;;
40162;SDS011;25881;47.462;19.304;2023-02-28T01:10:24;17.63;;;10.35;;
40162;SDS011;25881;47.462;19.304;2023-02-28T01:12:50;16.55;;;9.85;;
40162;SDS011;25881;47.462;19.304;2023-02-28T01:15:15;16.67;;;9.07;;
40162;SDS011;25881;47.462;19.304;2023-02-28T01:17:40;13.90;;;8.90;;
40162;SDS011;25881;47.462;19.304;2023-02-28T01:20:06;14.82;;;9.15;;
40162;SDS011;25881;47.462;19.304;2023-02-28T01:22:31;18.05;;;9.90;;
40162;SDS011;25881;47.462;19.304;2023-02-28T01:24:56;19.95;;;9.40;;
40162;SDS011;25881;47.462;19.304;2023-02-28T01:27:22;16.23;;;9.73;;
40162;SDS011;25881;47.462;19.304;2023-02-28T01:29:47;16.15;;;10.07;;
40162;SDS011;25881;47.462;19.304;2023-02-28T01:32:12;15.75;;;9.65;;
40162;SDS011;25881;47.462;19.304;2023-02-28T01:34:37;18.67;;;9.83;;
40162;SDS011;25881;47.462;19.304;2023-02-28T01:37:03;17.50;;;9.85;;
40162;SDS011;25881;47.462;19.304;2023-02-28T01:39:28;19.98;;;11.25;;
40162;SDS011;25881;47.462;19.304;2023-02-28T01:41:54;15.88;;;9.57;;
40162;SDS011;25881;47.462;19.304;2023-02-28T01:47:03;20.77;;;11.63;;
40162;SDS011;25881;47.462;19.304;2023-02-28T01:49:28;17.43;;;9.77;;
40162;SDS011;25881;47.462;19.304;2023-02-28T01:51:54;21.20;;;10.07;;
40162;SDS011;25881;47.462;19.304;2023-02-28T01:54:24;23.83;;;10.93;;
40162;SDS011;25881;47.462;19.304;2023-02-28T01:56:52;19.17;;;10.93;;
40162;SDS011;25881;47.462;19.304;2023-02-28T01:59:29;16.50;;;9.52;;
40162;SDS011;25881;47.462;19.304;2023-02-28T02:01:58;18.27;;;11.30;;
40162;SDS011;25881;47.462;19.304;2023-02-28T02:04:23;21.83;;;11.05;;
40162;SDS011;25881;47.462;19.304;2023-02-28T02:06:50;16.52;;;10.55;;
40162;SDS011;25881;47.462;19.304;2023-02-28T02:09:16;20.33;;;10.55;;
40162;SDS011;25881;47.462;19.304;2023-02-28T02:11:42;19.57;;;10.43;;
40162;SDS011;25881;47.462;19.304;2023-02-28T02:22:32;17.92;;;7.90;;
40162;SDS011;25881;47.462;19.304;2023-02-28T02:41:01;17.45;;;8.20;;
40162;SDS011;25881;47.462;19.304;2023-02-28T02:43:29;14.38;;;7.63;;
40162;SDS011;25881;47.462;19.304;2023-02-28T02:48:52;12.40;;;7.40;;
40162;SDS011;25881;47.462;19.304;2023-02-28T02:51:20;15.75;;;8.10;;
40162;SDS011;25881;47.462;19.304;2023-02-28T02:53:50;13.43;;;7.75;;
40162;SDS011;25881;47.462;19.304;2023-02-28T02:56:18;14.77;;;7.82;;
40162;SDS011;25881;47.462;19.304;2023-02-28T02:58:44;15.30;;;8.65;;
40162;SDS011;25881;47.462;19.304;2023-02-28T03:01:14;14.88;;;7.75;;
40162;SDS011;25881;47.462;19.304;2023-02-28T03:03:40;15.50;;;7.65;;
40162;SDS011;25881;47.462;19.304;2023-02-28T03:06:06;14.57;;;7.50;;
40162;SDS011;25881;47.462;19.304;2023-02-28T03:08:35;15.98;;;7.93;;
40162;SDS011;25881;47.462;19.304;2023-02-28T03:11:02;13.57;;;7.53;;
40162;SDS011;25881;47.462;19.304;2023-02-28T03:13:39;15.02;;;8.48;;
40162;SDS011;25881;47.462;19.304;2023-02-28T03:21:11;15.17;;;8.60;;
40162;SDS011;25881;47.462;19.304;2023-02-28T03:26:25;17.75;;;9.05;;
40162;SDS011;25881;47.462;19.304;2023-02-28T03:31:27;16.05;;;7.63;;
40162;SDS011;25881;47.462;19.304;2023-02-28T03:34:08;15.38;;;8.20;;
40162;SDS011;25881;47.462;19.304;2023-02-28T03:36:37;14.75;;;7.60;;
40162;SDS011;25881;47.462;19.304;2023-02-28T03:39:08;13.52;;;8.00;;
40162;SDS011;25881;47.462;19.304;2023-02-28T03:41:38;15.75;;;8.07;;
40162;SDS011;25881;47.462;19.304;2023-02-28T03:44:06;13.65;;;7.82;;
40162;SDS011;25881;47.462;19.304;2023-02-28T03:46:36;13.45;;;7.70;;
40162;SDS011;25881;47.462;19.304;2023-02-28T03:49:14;16.85;;;8.70;;
40162;SDS011;25881;47.462;19.304;2023-02-28T03:51:41;15.45;;;8.68;;
40162;SDS011;25881;47.462;19.304;2023-02-28T03:54:09;12.10;;;7.82;;
40162;SDS011;25881;47.462;19.304;2023-02-28T03:56:44;16.88;;;7.72;;
40162;SDS011;25881;47.462;19.304;2023-02-28T04:01:47;12.77;;;7.45;;
40162;SDS011;25881;47.462;19.304;2023-02-28T04:04:13;12.13;;;6.97;;
40162;SDS011;25881;47.462;19.304;2023-02-28T04:06:39;14.35;;;8.43;;
40162;SDS011;25881;47.462;19.304;2023-02-28T04:09:05;14.07;;;7.88;;
40162;SDS011;25881;47.462;19.304;2023-02-28T04:14:00;20.73;;;9.98;;
40162;SDS011;25881;47.462;19.304;2023-02-28T04:16:25;19.75;;;9.27;;
40162;SDS011;25881;47.462;19.304;2023-02-28T04:18:50;13.37;;;7.80;;
40162;SDS011;25881;47.462;19.304;2023-02-28T04:21:15;15.43;;;8.73;;
40162;SDS011;25881;47.462;19.304;2023-02-28T04:23:41;13.25;;;8.18;;
40162;SDS011;25881;47.462;19.304;2023-02-28T04:26:06;20.20;;;8.87;;
40162;SDS011;25881;47.462;19.304;2023-02-28T04:28:32;12.05;;;7.60;;
40162;SDS011;25881;47.462;19.304;2023-02-28T04:30:57;11.40;;;7.28;;
40162;SDS011;25881;47.462;19.304;2023-02-28T04:33:23;14.55;;;8.25;;
40162;SDS011;25881;47.462;19.304;2023-02-28T04:35:57;14.38;;;8.48;;
40162;SDS011;25881;47.462;19.304;2023-02-28T04:38:22;16.55;;;9.05;;
40162;SDS011;25881;47.462;19.304;2023-02-28T04:40:47;13.30;;;7.50;;
40162;SDS011;25881;47.462;19.304;2023-02-28T04:43:12;14.03;;;8.33;;
40162;SDS011;25881;47.462;19.304;2023-02-28T04:45:38;14.60;;;8.27;;
40162;SDS011;25881;47.462;19.304;2023-02-28T04:48:03;15.97;;;7.63;;
40162;SDS011;25881;47.462;19.304;2023-02-28T04:50:28;15.20;;;8.50;;
40162;SDS011;25881;47.462;19.304;2023-02-28T04:52:53;11.63;;;7.43;;
40162;SDS011;25881;47.462;19.304;2023-02-28T04:55:19;15.48;;;8.82;;
40162;SDS011;25881;47.462;19.304;2023-02-28T04:57:44;16.23;;;8.50;;
40162;SDS011;25881;47.462;19.304;2023-02-28T05:00:10;17.02;;;8.55;;
40162;SDS011;25881;47.462;19.304;2023-02-28T05:02:36;17.88;;;8.40;;
40162;SDS011;25881;47.462;19.304;2023-02-28T05:05:02;13.98;;;7.97;;
40162;SDS011;25881;47.462;19.304;2023-02-28T05:07:27;13.73;;;8.07;;
40162;SDS011;25881;47.462;19.304;2023-02-28T05:09:52;13.00;;;7.83;;
40162;SDS011;25881;47.462;19.304;2023-02-28T05:12:18;14.82;;;8.48;;
40162;SDS011;25881;47.462;19.304;2023-02-28T05:14:43;13.43;;;7.73;;
40162;SDS011;25881;47.462;19.304;2023-02-28T05:17:09;14.35;;;8.52;;
40162;SDS011;25881;47.462;19.304;2023-02-28T05:19:34;11.95;;;7.70;;
40162;SDS011;25881;47.462;19.304;2023-02-28T05:22:00;13.80;;;8.10;;
40162;SDS011;25881;47.462;19.304;2023-02-28T05:24:25;15.87;;;7.87;;
40162;SDS011;25881;47.462;19.304;2023-02-28T05:26:51;12.20;;;7.07;;
40162;SDS011;25881;47.462;19.304;2023-02-28T05:29:17;15.05;;;7.65;;
40162;SDS011;25881;47.462;19.304;2023-02-28T05:31:43;15.55;;;7.07;;
40162;SDS011;25881;47.462;19.304;2023-02-28T05:34:08;14.95;;;7.80;;
40162;SDS011;25881;47.462;19.304;2023-02-28T05:36:36;14.75;;;7.63;;
40162;SDS011;25881;47.462;19.304;2023-02-28T05:39:01;16.48;;;7.85;;
40162;SDS011;25881;47.462;19.304;2023-02-28T05:41:28;15.63;;;7.03;;
40162;SDS011;25881;47.462;19.304;2023-02-28T05:43:53;13.00;;;6.70;;
40162;SDS011;25881;47.462;19.304;2023-02-28T05:46:18;14.82;;;7.18;;
40162;SDS011;25881;47.462;19.304;2023-02-28T05:48:45;20.33;;;10.17;;
40162;SDS011;25881;47.462;19.304;2023-02-28T05:51:11;17.92;;;8.00;;
40162;SDS011;25881;47.462;19.304;2023-02-28T05:53:36;17.10;;;9.20;;
40162;SDS011;25881;47.462;19.304;2023-02-28T05:56:02;19.15;;;8.07;;
40162;SDS011;25881;47.462;19.304;2023-02-28T05:58:27;14.00;;;9.02;;
40162;SDS011;25881;47.462;19.304;2023-02-28T06:00:55;13.35;;;8.45;;
40162;SDS011;25881;47.462;19.304;2023-02-28T06:03:21;17.58;;;8.07;;
40162;SDS011;25881;47.462;19.304;2023-02-28T06:05:46;12.13;;;7.97;;
40162;SDS011;25881;47.462;19.304;2023-02-28T06:08:11;12.50;;;8.03;;
40162;SDS011;25881;47.462;19.304;2023-02-28T06:10:36;13.83;;;7.77;;
40162;SDS011;25881;47.462;19.304;2023-02-28T06:13:02;19.58;;;8.77;;
40162;SDS011;25881;47.462;19.304;2023-02-28T06:15:28;20.45;;;9.07;;
40162;SDS011;25881;47.462;19.304;2023-02-28T06:17:53;17.35;;;8.27;;
40162;SDS011;25881;47.462;19.304;2023-02-28T06:20:21;16.85;;;9.27;;
40162;SDS011;25881;47.462;19.304;2023-02-28T06:22:46;15.27;;;8.87;;
40162;SDS011;25881;47.462;19.304;2023-02-28T06:25:11;18.10;;;9.17;;
40162;SDS011;25881;47.462;19.304;2023-02-28T06:27:36;17.00;;;8.55;;
40162;SDS011;25881;47.462;19.304;2023-02-28T06:30:02;15.47;;;7.93;;
40162;SDS011;25881;47.462;19.304;2023-02-28T06:32:27;15.68;;;7.88;;
40162;SDS011;25881;47.462;19.304;2023-02-28T06:34:52;12.47;;;7.13;;
40162;SDS011;25881;47.462;19.304;2023-02-28T06:37:18;15.48;;;7.60;;
40162;SDS011;25881;47.462;19.304;2023-02-28T06:39:43;15.10;;;7.78;;
40162;SDS011;25881;47.462;19.304;2023-02-28T06:42:08;14.63;;;8.02;;
40162;SDS011;25881;47.462;19.304;2023-02-28T06:44:34;15.33;;;8.30;;
40162;SDS011;25881;47.462;19.304;2023-02-28T06:47:02;17.05;;;8.70;;
40162;SDS011;25881;47.462;19.304;2023-02-28T06:49:31;13.85;;;8.20;;
40162;SDS011;25881;47.462;19.304;2023-02-28T06:51:57;16.67;;;8.65;;
40162;SDS011;25881;47.462;19.304;2023-02-28T06:54:22;15.73;;;8.50;;
40162;SDS011;25881;47.462;19.304;2023-02-28T06:56:47;20.23;;;9.20;;
40162;SDS011;25881;47.462;19.304;2023-02-28T06:59:13;20.15;;;10.05;;
40162;SDS011;25881;47.462;19.304;2023-02-28T07:01:39;20.88;;;10.63;;
40162;SDS011;25881;47.462;19.304;2023-02-28T07:04:05;18.90;;;8.75;;
40162;SDS011;25881;47.462;19.304;2023-02-28T07:06:30;16.50;;;8.77;;
40162;SDS011;25881;47.462;19.304;2023-02-28T07:08:55;13.07;;;7.83;;
40162;SDS011;25881;47.462;19.304;2023-02-28T07:11:22;15.75;;;8.48;;
40162;SDS011;25881;47.462;19.304;2023-02-28T07:13:50;17.33;;;8.68;;
40162;SDS011;25881;47.462;19.304;2023-02-28T07:16:15;16.88;;;8.30;;
40162;SDS011;25881;47.462;19.304;2023-02-28T07:18:41;16.95;;;8.20;;
40162;SDS011;25881;47.462;19.304;2023-02-28T07:21:07;14.25;;;7.53;;
40162;SDS011;25881;47.462;19.304;2023-02-28T07:23:33;14.70;;;8.27;;
40162;SDS011;25881;47.462;19.304;2023-02-28T07:25:58;13.60;;;7.57;;
40162;SDS011;25881;47.462;19.304;2023-02-28T07:28:24;12.95;;;7.13;;
40162;SDS011;25881;47.462;19.304;2023-02-28T07:30:50;13.95;;;7.90;;
40162;SDS011;25881;47.462;19.304;2023-02-28T07:33:15;17.63;;;8.68;;
40162;SDS011;25881;47.462;19.304;2023-02-28T07:35:40;16.03;;;8.33;;
40162;SDS011;25881;47.462;19.304;2023-02-28T07:38:06;16.23;;;7.30;;
40162;SDS011;25881;47.462;19.304;2023-02-28T07:40:32;16.45;;;7.25;;
40162;SDS011;25881;47.462;19.304;2023-02-28T07:42:58;13.23;;;6.78;;
40162;SDS011;25881;47.462;19.304;2023-02-28T07:45:24;14.52;;;7.70;;
40162;SDS011;25881;47.462;19.304;2023-02-28T07:47:49;13.50;;;7.53;;
40162;SDS011;25881;47.462;19.304;2023-02-28T07:50:15;17.87;;;7.23;;
40162;SDS011;25881;47.462;19.304;2023-02-28T07:52:41;12.80;;;6.95;;
40162;SDS011;25881;47.462;19.304;2023-02-28T07:55:06;12.35;;;6.40;;
40162;SDS011;25881;47.462;19.304;2023-02-28T07:57:32;13.05;;;6.68;;
40162;SDS011;25881;47.462;19.304;2023-02-28T07:59:57;13.57;;;6.83;;
40162;SDS011;25881;47.462;19.304;2023-02-28T08:02:22;11.60;;;6.22;;
40162;SDS011;25881;47.462;19.304;2023-02-28T08:04:48;8.82;;;6.35;;
40162;SDS011;25881;47.462;19.304;2023-02-28T08:07:14;14.82;;;7.32;;
40162;SDS011;25881;47.462;19.304;2023-02-28T08:09:40;13.75;;;7.65;;
40162;SDS011;25881;47.462;19.304;2023-02-28T08:12:05;12.68;;;7.30;;
40162;SDS011;25881;47.462;19.304;2023-02-28T08:14:31;11.30;;;5.35;;
40162;SDS011;25881;47.462;19.304;2023-02-28T08:16:56;11.93;;;6.72;;
40162;SDS011;25881;47.462;19.304;2023-02-28T08:19:22;13.38;;;6.78;;
40162;SDS011;25881;47.462;19.304;2023-02-28T08:21:47;14.50;;;8.35;;
40162;SDS011;25881;47.462;19.304;2023-02-28T08:24:12;13.43;;;7.73;;
40162;SDS011;25881;47.462;19.304;2023-02-28T08:26:37;17.53;;;6.50;;
40162;SDS011;25881;47.462;19.304;2023-02-28T08:29:02;12.90;;;7.33;;
40162;SDS011;25881;47.462;19.304;2023-02-28T08:31:28;16.20;;;7.67;;
40162;SDS011;25881;47.462;19.304;2023-02-28T08:33:53;22.77;;;10.77;;
40162;SDS011;25881;47.462;19.304;2023-02-28T08:38:46;19.95;;;10.25;;
40162;SDS011;25881;47.462;19.304;2023-02-28T08:41:12;22.37;;;8.50;;
40162;SDS011;25881;47.462;19.304;2023-02-28T08:43:38;19.83;;;9.75;;
40162;SDS011;25881;47.462;19.304;2023-02-28T08:46:03;18.33;;;9.07;;
40162;SDS011;25881;47.462;19.304;2023-02-28T08:48:30;22.83;;;10.05;;
40162;SDS011;25881;47.462;19.304;2023-02-28T08:50:59;13.13;;;6.43;;
40162;SDS011;25881;47.462;19.304;2023-02-28T08:53:25;12.10;;;5.75;;
40162;SDS011;25881;47.462;19.304;2023-02-28T08:55:59;12.77;;;7.20;;
40162;SDS011;25881;47.462;19.304;2023-02-28T08:58:25;8.18;;;5.10;;
40162;SDS011;25881;47.462;19.304;2023-02-28T09:00:50;10.70;;;5.43;;
40162;SDS011;25881;47.462;19.304;2023-02-28T09:03:16;18.98;;;9.02;;
40162;SDS011;25881;47.462;19.304;2023-02-28T09:05:51;13.20;;;5.82;;
40162;SDS011;25881;47.462;19.304;2023-02-28T09:08:16;8.52;;;5.28;;
40162;SDS011;25881;47.462;19.304;2023-02-28T09:10:41;12.33;;;5.93;;
40162;SDS011;25881;47.462;19.304;2023-02-28T09:13:06;12.17;;;5.57;;
40162;SDS011;25881;47.462;19.304;2023-02-28T09:15:31;15.77;;;8.40;;
40162;SDS011;25881;47.462;19.304;2023-02-28T09:17:57;13.30;;;5.73;;
40162;SDS011;25881;47.462;19.304;2023-02-28T09:20:22;14.70;;;6.30;;
40162;SDS011;25881;47.462;19.304;2023-02-28T09:22:47;8.47;;;5.63;;
40162;SDS011;25881;47.462;19.304;2023-02-28T09:25:13;10.50;;;5.90;;
40162;SDS011;25881;47.462;19.304;2023-02-28T09:27:38;9.93;;;5.50;;
40162;SDS011;25881;47.462;19.304;2023-02-28T09:30:04;34.35;;;14.98;;
40162;SDS011;25881;47.462;19.304;2023-02-28T09:32:29;17.30;;;8.55;;
40162;SDS011;25881;47.462;19.304;2023-02-28T09:34:55;12.40;;;5.43;;
40162;SDS011;25881;47.462;19.304;2023-02-28T09:37:20;8.48;;;4.95;;
40162;SDS011;25881;47.462;19.304;2023-02-28T09:39:45;7.15;;;4.35;;
40162;SDS011;25881;47.462;19.304;2023-02-28T09:42:13;11.53;;;6.33;;
40162;SDS011;25881;47.462;19.304;2023-02-28T09:44:43;8.63;;;5.32;;
40162;SDS011;25881;47.462;19.304;2023-02-28T09:47:13;8.13;;;4.75;;
40162;SDS011;25881;47.462;19.304;2023-02-28T09:49:42;7.43;;;5.22;;
40162;SDS011;25881;47.462;19.304;2023-02-28T09:52:10;8.25;;;5.00;;
40162;SDS011;25881;47.462;19.304;2023-02-28T09:54:36;7.63;;;5.15;;
40162;SDS011;25881;47.462;19.304;2023-02-28T09:57:06;9.95;;;5.25;;
40162;SDS011;25881;47.462;19.304;2023-02-28T10:04:29;8.57;;;4.77;;
40162;SDS011;25881;47.462;19.304;2023-02-28T10:06:57;8.68;;;5.18;;
40162;SDS011;25881;47.462;19.304;2023-02-28T10:09:24;8.50;;;5.47;;
40162;SDS011;25881;47.462;19.304;2023-02-28T10:11:51;10.40;;;5.72;;
40162;SDS011;25881;47.462;19.304;2023-02-28T10:14:18;8.68;;;5.55;;
40162;SDS011;25881;47.462;19.304;2023-02-28T10:16:46;8.15;;;5.32;;
40162;SDS011;25881;47.462;19.304;2023-02-28T10:21:57;10.45;;;5.38;;
40162;SDS011;25881;47.462;19.304;2023-02-28T10:27:10;9.53;;;6.27;;
40162;SDS011;25881;47.462;19.304;2023-02-28T10:29:37;8.40;;;5.15;;
40162;SDS011;25881;47.462;19.304;2023-02-28T10:32:05;8.23;;;5.47;;
40162;SDS011;25881;47.462;19.304;2023-02-28T10:34:30;10.45;;;6.40;;
40162;SDS011;25881;47.462;19.304;2023-02-28T10:36:56;9.27;;;5.72;;
40162;SDS011;25881;47.462;19.304;2023-02-28T10:39:37;7.93;;;5.20;;
40162;SDS011;25881;47.462;19.304;2023-02-28T10:42:02;10.45;;;6.05;;
40162;SDS011;25881;47.462;19.304;2023-02-28T10:44:28;9.80;;;5.80;;
40162;SDS011;25881;47.462;19.304;2023-02-28T10:46:54;9.30;;;5.93;;
40162;SDS011;25881;47.462;19.304;2023-02-28T10:49:21;12.23;;;6.10;;
40162;SDS011;25881;47.462;19.304;2023-02-28T10:51:47;12.40;;;6.03;;
40162;SDS011;25881;47.462;19.304;2023-02-28T10:54:24;11.20;;;6.80;;
40162;SDS011;25881;47.462;19.304;2023-02-28T10:57:08;11.60;;;6.20;;
40162;SDS011;25881;47.462;19.304;2023-02-28T10:59:34;11.20;;;6.63;;
40162;SDS011;25881;47.462;19.304;2023-02-28T11:01:59;10.45;;;6.10;;
40162;SDS011;25881;47.462;19.304;2023-02-28T11:06:58;10.15;;;6.95;;
40162;SDS011;25881;47.462;19.304;2023-02-28T11:09:26;14.00;;;6.93;;
40162;SDS011;25881;47.462;19.304;2023-02-28T11:11:51;11.68;;;7.53;;
40162;SDS011;25881;47.462;19.304;2023-02-28T11:14:31;11.43;;;6.30;;
40162;SDS011;25881;47.462;19.304;2023-02-28T11:17:42;10.32;;;6.47;;
40162;SDS011;25881;47.462;19.304;2023-02-28T11:19:45;12.57;;;6.90;;
40162;SDS011;25881;47.462;19.304;2023-02-28T11:22:15;11.32;;;7.25;;
40162;SDS011;25881;47.462;19.304;2023-02-28T11:24:43;11.63;;;6.60;;
40162;SDS011;25881;47.462;19.304;2023-02-28T11:29:53;14.63;;;7.63;;
40162;SDS011;25881;47.462;19.304;2023-02-28T11:32:19;11.73;;;7.75;;
40162;SDS011;25881;47.462;19.304;2023-02-28T11:34:45;10.32;;;6.00;;
40162;SDS011;25881;47.462;19.304;2023-02-28T11:37:19;12.50;;;7.15;;
40162;SDS011;25881;47.462;19.304;2023-02-28T11:39:46;9.48;;;6.38;;
40162;SDS011;25881;47.462;19.304;2023-02-28T11:42:19;12.35;;;7.05;;
40162;SDS011;25881;47.462;19.304;2023-02-28T11:47:42;11.23;;;6.47;;
40162;SDS011;25881;47.462;19.304;2023-02-28T11:52:39;12.10;;;7.03;;
40162;SDS011;25881;47.462;19.304;2023-02-28T11:57:35;11.65;;;6.50;;
40162;SDS011;25881;47.462;19.304;2023-02-28T12:02:43;10.23;;;6.55;;
40162;SDS011;25881;47.462;19.304;2023-02-28T12:05:24;12.40;;;7.43;;
40162;SDS011;25881;47.462;19.304;2023-02-28T12:13:24;13.00;;;6.77;;
40162;SDS011;25881;47.462;19.304;2023-02-28T12:29:04;9.03;;;6.13;;
40162;SDS011;25881;47.462;19.304;2023-02-28T12:31:35;9.85;;;6.60;;
40162;SDS011;25881;47.462;19.304;2023-02-28T12:34:10;11.57;;;6.90;;
40162;SDS011;25881;47.462;19.304;2023-02-28T12:36:37;11.13;;;6.50;;
40162;SDS011;25881;47.462;19.304;2023-02-28T12:39:12;11.15;;;6.50;;
40162;SDS011;25881;47.462;19.304;2023-02-28T12:41:45;15.38;;;6.80;;
40162;SDS011;25881;47.462;19.304;2023-02-28T12:46:51;10.35;;;6.93;;
40162;SDS011;25881;47.462;19.304;2023-02-28T12:49:21;9.70;;;6.28;;
40162;SDS011;25881;47.462;19.304;2023-02-28T12:51:49;16.17;;;7.15;;
40162;SDS011;25881;47.462;19.304;2023-02-28T12:54:25;11.23;;;7.22;;
40162;SDS011;25881;47.462;19.304;2023-02-28T12:59:55;11.57;;;7.88;;
40162;SDS011;25881;47.462;19.304;2023-02-28T13:09:58;12.57;;;7.93;;
40162;SDS011;25881;47.462;19.304;2023-02-28T13:12:24;12.88;;;8.18;;
40162;SDS011;25881;47.462;19.304;2023-02-28T13:14:50;11.52;;;7.53;;
40162;SDS011;25881;47.462;19.304;2023-02-28T13:17:21;13.73;;;8.18;;
40162;SDS011;25881;47.462;19.304;2023-02-28T13:24:48;13.85;;;7.85;;
40162;SDS011;25881;47.462;19.304;2023-02-28T13:29:40;15.27;;;8.77;;
40162;SDS011;25881;47.462;19.304;2023-02-28T13:34:33;12.07;;;7.75;;
40162;SDS011;25881;47.462;19.304;2023-02-28T13:47:31;12.13;;;7.90;;
40162;SDS011;25881;47.462;19.304;2023-02-28T13:55:26;13.82;;;9.02;;
40162;SDS011;25881;47.462;19.304;2023-02-28T14:00:57;14.63;;;8.50;;
40162;SDS011;25881;47.462;19.304;2023-02-28T14:05:37;12.43;;;7.70;;
40162;SDS011;25881;47.462;19.304;2023-02-28T14:08:24;15.30;;;7.57;;
40162;SDS011;25881;47.462;19.304;2023-02-28T14:10:50;13.02;;;7.78;;
40162;SDS011;25881;47.462;19.304;2023-02-28T14:15:59;15.68;;;7.43;;
40162;SDS011;25881;47.462;19.304;2023-02-28T14:18:27;14.07;;;6.90;;
40162;SDS011;25881;47.462;19.304;2023-02-28T14:20:55;14.33;;;8.97;;
40162;SDS011;25881;47.462;19.304;2023-02-28T14:23:34;11.98;;;7.32;;
40162;SDS011;25881;47.462;19.304;2023-02-28T14:26:51;14.95;;;8.25;;
40162;SDS011;25881;47.462;19.304;2023-02-28T14:31:34;35.20;;;19.40;;
40162;SDS011;25881;47.462;19.304;2023-02-28T14:36:44;33.35;;;15.98;;
40162;SDS011;25881;47.462;19.304;2023-02-28T14:39:14;54.80;;;23.67;;
40162;SDS011;25881;47.462;19.304;2023-02-28T14:41:40;65.95;;;24.95;;
40162;SDS011;25881;47.462;19.304;2023-02-28T14:44:16;22.20;;;11.40;;
40162;SDS011;25881;47.462;19.304;2023-02-28T14:46:42;29.10;;;14.38;;
40162;SDS011;25881;47.462;19.304;2023-02-28T14:49:13;24.70;;;12.90;;
40162;SDS011;25881;47.462;19.304;2023-02-28T14:51:40;16.75;;;8.65;;
40162;SDS011;25881;47.462;19.304;2023-02-28T14:54:05;13.63;;;8.93;;
40162;SDS011;25881;47.462;19.304;2023-02-28T14:56:37;18.15;;;9.27;;
40162;SDS011;25881;47.462;19.304;2023-02-28T14:59:04;15.55;;;9.55;;
40162;SDS011;25881;47.462;19.304;2023-02-28T15:01:29;19.40;;;11.48;;
40162;SDS011;25881;47.462;19.304;2023-02-28T15:04:00;20.15;;;13.60;;
40162;SDS011;25881;47.462;19.304;2023-02-28T15:06:26;15.43;;;10.65;;
40162;SDS011;25881;47.462;19.304;2023-02-28T15:11:55;16.42;;;8.90;;
40162;SDS011;25881;47.462;19.304;2023-02-28T15:14:21;15.05;;;8.85;;
40162;SDS011;25881;47.462;19.304;2023-02-28T15:16:51;17.60;;;9.70;;
40162;SDS011;25881;47.462;19.304;2023-02-28T15:19:20;20.50;;;11.25;;
40162;SDS011;25881;47.462;19.304;2023-02-28T15:21:52;22.95;;;13.07;;
40162;SDS011;25881;47.462;19.304;2023-02-28T15:24:24;21.45;;;13.45;;
40162;SDS011;25881;47.462;19.304;2023-02-28T15:26:56;19.63;;;13.60;;
40162;SDS011;25881;47.462;19.304;2023-02-28T15:29:23;31.92;;;16.50;;
40162;SDS011;25881;47.462;19.304;2023-02-28T15:32:02;49.15;;;20.48;;
40162;SDS011;25881;47.462;19.304;2023-02-28T15:34:29;17.25;;;10.95;;
40162;SDS011;25881;47.462;19.304;2023-02-28T15:36:58;20.40;;;10.73;;
40162;SDS011;25881;47.462;19.304;2023-02-28T15:39:25;15.52;;;10.07;;
40162;SDS011;25881;47.462;19.304;2023-02-28T15:41:52;14.13;;;8.90;;
40162;SDS011;25881;47.462;19.304;2023-02-28T15:44:24;22.98;;;14.40;;
40162;SDS011;25881;47.462;19.304;2023-02-28T15:49:39;17.15;;;9.75;;
40162;SDS011;25881;47.462;19.304;2023-02-28T15:52:05;16.92;;;11.00;;
40162;SDS011;25881;47.462;19.304;2023-02-28T15:54:32;18.05;;;10.82;;
40162;SDS011;25881;47.462;19.304;2023-02-28T15:57:01;16.50;;;10.45;;
40162;SDS011;25881;47.462;19.304;2023-02-28T15:59:28;15.63;;;9.80;;
40162;SDS011;25881;47.462;19.304;2023-02-28T16:04:34;16.80;;;10.32;;
40162;SDS011;25881;47.462;19.304;2023-02-28T16:09:25;18.03;;;10.97;;
40162;SDS011;25881;47.462;19.304;2023-02-28T16:11:53;19.20;;;11.40;;
40162;SDS011;25881;47.462;19.304;2023-02-28T16:14:20;29.30;;;15.75;;
40162;SDS011;25881;47.462;19.304;2023-02-28T16:16:50;19.95;;;11.68;;
40162;SDS011;25881;47.462;19.304;2023-02-28T16:19:18;16.08;;;9.70;;
40162;SDS011;25881;47.462;19.304;2023-02-28T16:21:44;16.55;;;10.20;;
40162;SDS011;25881;47.462;19.304;2023-02-28T16:24:09;17.00;;;9.85;;
40162;SDS011;25881;47.462;19.304;2023-02-28T16:26:35;16.63;;;10.25;;
40162;SDS011;25881;47.462;19.304;2023-02-28T16:29:02;17.02;;;10.00;;
40162;SDS011;25881;47.462;19.304;2023-02-28T16:31:28;18.90;;;10.68;;
40162;SDS011;25881;47.462;19.304;2023-02-28T16:33:54;18.25;;;10.82;;
40162;SDS011;25881;47.462;19.304;2023-02-28T16:36:20;17.02;;;10.82;;
40162;SDS011;25881;47.462;19.304;2023-02-28T16:38:46;15.75;;;10.40;;
40162;SDS011;25881;47.462;19.304;2023-02-28T16:41:18;16.20;;;9.68;;
40162;SDS011;25881;47.462;19.304;2023-02-28T16:43:44;17.27;;;9.95;;
40162;SDS011;25881;47.462;19.304;2023-02-28T16:46:11;18.50;;;10.20;;
40162;SDS011;25881;47.462;19.304;2023-02-28T16:48:37;22.88;;;12.35;;
40162;SDS011;25881;47.462;19.304;2023-02-28T16:51:03;18.52;;;11.27;;
40162;SDS011;25881;47.462;19.304;2023-02-28T16:53:29;40.65;;;18.75;;
40162;SDS011;25881;47.462;19.304;2023-02-28T16:55:54;35.35;;;18.08;;